sensor_id;sensor_type;location;lat;lon;timestamp;temperature;humidity
24326;DHT22;12448;45.532;5.290;2024-02-04T00:00:51;6.10;99.90
24326;DHT22;12448;45.532;5.290;2024-02-04T00:03:16;6.50;99.90
24326;DHT22;12448;45.532;5.290;2024-02-04T00:05:42;6.20;99.90
24326;DHT22;12448;45.532;5.290;2024-02-04T00:08:08;6.20;99.90
24326;DHT22;12448;45.532;5.290;2024-02-04T00:10:34;6.70;99.90
24326;DHT22;12448;45.532;5.290;2024-02-04T00:13:00;6.20;99.90
24326;DHT22;12448;45.532;5.290;2024-02-04T00:15:25;6.20;99.90
24326;DHT22;12448;45.532;5.290;2024-02-04T00:17:51;6.40;99.90
24326;DHT22;12448;45.532;5.290;2024-02-04T00:20:16;6.70;99.90
24326;DHT22;12448;45.532;5.290;2024-02-04T00:22:42;6.10;99.90
24326;DHT22;12448;45.532;5.290;2024-02-04T00:25:08;6.20;99.90
24326;DHT22;12448;45.532;5.290;2024-02-04T00:27:37;6.50;99.90
24326;DHT22;12448;45.532;5.290;2024-02-04T00:30:03;6.00;99.90
24326;DHT22;12448;45.532;5.290;2024-02-04T00:32:29;5.90;99.90
24326;DHT22;12448;45.532;5.290;2024-02-04T00:34:55;5.90;99.90
24326;DHT22;12448;45.532;5.290;2024-02-04T00:37:20;6.00;99.90
24326;DHT22;12448;45.532;5.290;2024-02-04T00:39:46;6.20;99.90
24326;DHT22;12448;45.532;5.290;2024-02-04T00:42:12;5.90;99.90
24326;DHT22;12448;45.532;5.290;2024-02-04T00:44:37;5.60;99.90
24326;DHT22;12448;45.532;5.290;2024-02-04T00:47:03;5.70;99.90
24326;DHT22;12448;45.532;5.290;2024-02-04T00:49:29;5.70;99.90
24326;DHT22;12448;45.532;5.290;2024-02-04T00:51:54;5.90;99.90
24326;DHT22;12448;45.532;5.290;2024-02-04T00:54:20;6.10;99.90
24326;DHT22;12448;45.532;5.290;2024-02-04T00:56:46;6.10;99.90
24326;DHT22;12448;45.532;5.290;2024-02-04T00:59:11;6.40;99.90
24326;DHT22;12448;45.532;5.290;2024-02-04T01:01:38;5.80;99.90
24326;DHT22;12448;45.532;5.290;2024-02-04T01:04:03;6.10;99.90
24326;DHT22;12448;45.532;5.290;2024-02-04T01:06:29;5.80;99.90
24326;DHT22;12448;45.532;5.290;2024-02-04T01:08:56;6.30;99.90
24326;DHT22;12448;45.532;5.290;2024-02-04T01:11:22;5.60;99.90
24326;DHT22;12448;45.532;5.290;2024-02-04T01:13:50;5.50;99.90
24326;DHT22;12448;45.532;5.290;2024-02-04T01:16:16;5.40;99.90
24326;DHT22;12448;45.532;5.290;2024-02-04T01:18:42;5.70;99.90
24326;DHT22;12448;45.532;5.290;2024-02-04T01:21:08;6.00;99.90
24326;DHT22;12448;45.532;5.290;2024-02-04T01:23:36;5.50;99.90
24326;DHT22;12448;45.532;5.290;2024-02-04T01:26:02;5.50;99.90
24326;DHT22;12448;45.532;5.290;2024-02-04T01:28:27;5.40;99.90
24326;DHT22;12448;45.532;5.290;2024-02-04T01:30:53;5.30;99.90
24326;DHT22;12448;45.532;5.290;2024-02-04T01:33:19;5.30;99.90
24326;DHT22;12448;45.532;5.290;2024-02-04T01:35:44;5.70;99.90
24326;DHT22;12448;45.532;5.290;2024-02-04T01:38:10;5.30;99.90
24326;DHT22;12448;45.532;5.290;2024-02-04T01:40:35;5.40;99.90
24326;DHT22;12448;45.532;5.290;2024-02-04T01:43:01;5.80;99.90
24326;DHT22;12448;45.532;5.290;2024-02-04T01:45:27;5.50;99.90
24326;DHT22;12448;45.532;5.290;2024-02-04T01:47:54;5.50;99.90
24326;DHT22;12448;45.532;5.290;2024-02-04T01:50:20;5.60;99.90
24326;DHT22;12448;45.532;5.290;2024-02-04T01:52:46;5.60;99.90
24326;DHT22;12448;45.532;5.290;2024-02-04T01:55:13;5.70;99.90
24326;DHT22;12448;45.532;5.290;2024-02-04T01:57:39;6.00;99.90
24326;DHT22;12448;45.532;5.290;2024-02-04T02:00:05;5.50;99.90
24326;DHT22;12448;45.532;5.290;2024-02-04T02:02:34;5.60;99.90
24326;DHT22;12448;45.532;5.290;2024-02-04T02:05:04;5.90;99.90
24326;DHT22;12448;45.532;5.290;2024-02-04T02:07:30;5.50;99.90
24326;DHT22;12448;45.532;5.290;2024-02-04T02:09:56;5.30;99.90
24326;DHT22;12448;45.532;5.290;2024-02-04T02:12:28;5.20;99.90
24326;DHT22;12448;45.532;5.290;2024-02-04T02:15:03;5.30;99.90
24326;DHT22;12448;45.532;5.290;2024-02-04T02:17:48;5.30;99.90
24326;DHT22;12448;45.532;5.290;2024-02-04T02:20:21;5.30;99.90
24326;DHT22;12448;45.532;5.290;2024-02-04T02:22:57;5.40;99.90
24326;DHT22;12448;45.532;5.290;2024-02-04T02:25:27;5.70;99.90
24326;DHT22;12448;45.532;5.290;2024-02-04T02:27:53;5.60;99.90
24326;DHT22;12448;45.532;5.290;2024-02-04T02:30:19;5.60;99.90
24326;DHT22;12448;45.532;5.290;2024-02-04T02:32:46;5.70;99.90
24326;DHT22;12448;45.532;5.290;2024-02-04T02:35:15;5.80;99.90
24326;DHT22;12448;45.532;5.290;2024-02-04T02:40:25;5.40;99.90
24326;DHT22;12448;45.532;5.290;2024-02-04T02:42:52;5.50;99.90
24326;DHT22;12448;45.532;5.290;2024-02-04T02:45:20;5.50;99.90
24326;DHT22;12448;45.532;5.290;2024-02-04T02:47:48;5.50;99.90
24326;DHT22;12448;45.532;5.290;2024-02-04T02:50:14;5.60;99.90
24326;DHT22;12448;45.532;5.290;2024-02-04T02:52:40;5.60;99.90
24326;DHT22;12448;45.532;5.290;2024-02-04T02:55:06;5.50;99.90
24326;DHT22;12448;45.532;5.290;2024-02-04T02:57:32;5.50;99.90
24326;DHT22;12448;45.532;5.290;2024-02-04T02:59:57;6.10;99.90
24326;DHT22;12448;45.532;5.290;2024-02-04T03:02:23;5.80;99.90
24326;DHT22;12448;45.532;5.290;2024-02-04T03:04:49;5.50;99.90
24326;DHT22;12448;45.532;5.290;2024-02-04T03:07:17;5.60;99.90
24326;DHT22;12448;45.532;5.290;2024-02-04T03:09:43;5.60;99.90
24326;DHT22;12448;45.532;5.290;2024-02-04T03:12:09;5.80;99.90
24326;DHT22;12448;45.532;5.290;2024-02-04T03:14:35;5.70;99.90
24326;DHT22;12448;45.532;5.290;2024-02-04T03:17:01;6.40;99.90
24326;DHT22;12448;45.532;5.290;2024-02-04T03:19:26;6.20;99.90
24326;DHT22;12448;45.532;5.290;2024-02-04T03:21:52;5.50;99.90
24326;DHT22;12448;45.532;5.290;2024-02-04T03:24:21;5.60;99.90
24326;DHT22;12448;45.532;5.290;2024-02-04T03:26:46;5.50;99.90
24326;DHT22;12448;45.532;5.290;2024-02-04T03:29:12;5.50;99.90
24326;DHT22;12448;45.532;5.290;2024-02-04T03:31:38;5.40;99.90
24326;DHT22;12448;45.532;5.290;2024-02-04T03:34:03;5.50;99.90
24326;DHT22;12448;45.532;5.290;2024-02-04T03:36:30;5.50;99.90
24326;DHT22;12448;45.532;5.290;2024-02-04T03:38:56;5.40;99.90
24326;DHT22;12448;45.532;5.290;2024-02-04T03:41:22;5.90;99.90
24326;DHT22;12448;45.532;5.290;2024-02-04T03:43:48;5.10;99.90
24326;DHT22;12448;45.532;5.290;2024-02-04T03:46:16;5.10;99.90
24326;DHT22;12448;45.532;5.290;2024-02-04T03:48:43;5.00;99.90
24326;DHT22;12448;45.532;5.290;2024-02-04T03:51:15;5.00;99.90
24326;DHT22;12448;45.532;5.290;2024-02-04T03:53:41;5.30;99.90
24326;DHT22;12448;45.532;5.290;2024-02-04T03:56:06;4.90;99.90
24326;DHT22;12448;45.532;5.290;2024-02-04T03:58:33;4.90;99.90
24326;DHT22;12448;45.532;5.290;2024-02-04T04:00:58;5.20;99.90
24326;DHT22;12448;45.532;5.290;2024-02-04T04:03:25;4.80;99.90
24326;DHT22;12448;45.532;5.290;2024-02-04T04:05:53;4.70;99.90
24326;DHT22;12448;45.532;5.290;2024-02-04T04:08:18;5.30;99.90
24326;DHT22;12448;45.532;5.290;2024-02-04T04:10:45;4.90;99.90
24326;DHT22;12448;45.532;5.290;2024-02-04T04:13:10;4.70;99.90
24326;DHT22;12448;45.532;5.290;2024-02-04T04:15:36;4.70;99.90
24326;DHT22;12448;45.532;5.290;2024-02-04T04:18:02;4.80;99.90
24326;DHT22;12448;45.532;5.290;2024-02-04T04:20:28;4.80;99.90
24326;DHT22;12448;45.532;5.290;2024-02-04T04:22:54;4.80;99.90
24326;DHT22;12448;45.532;5.290;2024-02-04T04:25:19;5.30;99.90
24326;DHT22;12448;45.532;5.290;2024-02-04T04:27:45;4.90;99.90
24326;DHT22;12448;45.532;5.290;2024-02-04T04:30:11;4.90;99.90
24326;DHT22;12448;45.532;5.290;2024-02-04T04:32:37;5.00;99.90
24326;DHT22;12448;45.532;5.290;2024-02-04T04:35:02;5.00;99.90
24326;DHT22;12448;45.532;5.290;2024-02-04T04:37:28;5.00;99.90
24326;DHT22;12448;45.532;5.290;2024-02-04T04:39:54;5.00;99.90
24326;DHT22;12448;45.532;5.290;2024-02-04T04:42:20;5.00;99.90
24326;DHT22;12448;45.532;5.290;2024-02-04T04:44:46;5.50;99.90
24326;DHT22;12448;45.532;5.290;2024-02-04T04:47:12;5.00;99.90
24326;DHT22;12448;45.532;5.290;2024-02-04T04:49:37;4.90;99.90
24326;DHT22;12448;45.532;5.290;2024-02-04T04:52:03;4.90;99.90
24326;DHT22;12448;45.532;5.290;2024-02-04T04:54:29;5.00;99.90
24326;DHT22;12448;45.532;5.290;2024-02-04T04:56:55;5.50;99.90
24326;DHT22;12448;45.532;5.290;2024-02-04T04:59:20;5.00;99.90
24326;DHT22;12448;45.532;5.290;2024-02-04T05:01:49;5.00;99.90
24326;DHT22;12448;45.532;5.290;2024-02-04T05:04:18;4.90;99.90
24326;DHT22;12448;45.532;5.290;2024-02-04T05:06:50;4.80;99.90
24326;DHT22;12448;45.532;5.290;2024-02-04T05:09:16;4.70;99.90
24326;DHT22;12448;45.532;5.290;2024-02-04T05:11:42;4.70;99.90
24326;DHT22;12448;45.532;5.290;2024-02-04T05:14:08;5.00;99.90
24326;DHT22;12448;45.532;5.290;2024-02-04T05:16:34;4.70;99.90
24326;DHT22;12448;45.532;5.290;2024-02-04T05:19:01;5.10;99.90
24326;DHT22;12448;45.532;5.290;2024-02-04T05:21:27;5.30;99.90
24326;DHT22;12448;45.532;5.290;2024-02-04T05:23:53;4.90;99.90
24326;DHT22;12448;45.532;5.290;2024-02-04T05:26:18;4.70;99.90
24326;DHT22;12448;45.532;5.290;2024-02-04T05:28:44;4.80;99.90
24326;DHT22;12448;45.532;5.290;2024-02-04T05:31:10;4.70;99.90
24326;DHT22;12448;45.532;5.290;2024-02-04T05:33:35;4.60;99.90
24326;DHT22;12448;45.532;5.290;2024-02-04T05:36:01;4.60;99.90
24326;DHT22;12448;45.532;5.290;2024-02-04T05:38:26;4.60;99.90
24326;DHT22;12448;45.532;5.290;2024-02-04T05:40:52;4.60;99.90
24326;DHT22;12448;45.532;5.290;2024-02-04T05:43:18;4.80;99.90
24326;DHT22;12448;45.532;5.290;2024-02-04T05:45:43;4.60;99.90
24326;DHT22;12448;45.532;5.290;2024-02-04T05:48:09;4.60;99.90
24326;DHT22;12448;45.532;5.290;2024-02-04T05:50:36;4.60;99.90
24326;DHT22;12448;45.532;5.290;2024-02-04T05:53:02;4.60;99.90
24326;DHT22;12448;45.532;5.290;2024-02-04T05:55:28;4.60;99.90
24326;DHT22;12448;45.532;5.290;2024-02-04T05:57:54;4.70;99.90
24326;DHT22;12448;45.532;5.290;2024-02-04T06:00:20;5.20;99.90
24326;DHT22;12448;45.532;5.290;2024-02-04T06:02:46;4.80;99.90
24326;DHT22;12448;45.532;5.290;2024-02-04T06:05:12;5.20;99.90
24326;DHT22;12448;45.532;5.290;2024-02-04T06:07:38;5.10;99.90
24326;DHT22;12448;45.532;5.290;2024-02-04T06:10:04;5.00;99.90
24326;DHT22;12448;45.532;5.290;2024-02-04T06:12:30;5.10;99.90
24326;DHT22;12448;45.532;5.290;2024-02-04T06:14:55;5.20;99.90
24326;DHT22;12448;45.532;5.290;2024-02-04T06:17:21;5.40;99.90
24326;DHT22;12448;45.532;5.290;2024-02-04T06:19:47;4.90;99.90
24326;DHT22;12448;45.532;5.290;2024-02-04T06:22:13;4.70;99.90
24326;DHT22;12448;45.532;5.290;2024-02-04T06:24:39;4.90;99.90
24326;DHT22;12448;45.532;5.290;2024-02-04T06:27:07;5.30;99.90
24326;DHT22;12448;45.532;5.290;2024-02-04T06:29:33;4.80;99.90
24326;DHT22;12448;45.532;5.290;2024-02-04T06:32:00;4.70;99.90
24326;DHT22;12448;45.532;5.290;2024-02-04T06:34:25;4.70;99.90
24326;DHT22;12448;45.532;5.290;2024-02-04T06:36:51;4.70;99.90
24326;DHT22;12448;45.532;5.290;2024-02-04T06:39:17;4.70;99.90
24326;DHT22;12448;45.532;5.290;2024-02-04T06:41:42;4.70;99.90
24326;DHT22;12448;45.532;5.290;2024-02-04T06:44:08;4.70;99.90
24326;DHT22;12448;45.532;5.290;2024-02-04T06:46:36;5.10;99.90
24326;DHT22;12448;45.532;5.290;2024-02-04T06:49:01;5.00;99.90
24326;DHT22;12448;45.532;5.290;2024-02-04T06:51:27;5.30;99.90
24326;DHT22;12448;45.532;5.290;2024-02-04T06:53:52;4.80;99.90
24326;DHT22;12448;45.532;5.290;2024-02-04T06:56:18;4.80;99.90
24326;DHT22;12448;45.532;5.290;2024-02-04T06:58:44;4.80;99.90
24326;DHT22;12448;45.532;5.290;2024-02-04T07:01:11;5.20;99.90
24326;DHT22;12448;45.532;5.290;2024-02-04T07:03:36;4.80;99.90
24326;DHT22;12448;45.532;5.290;2024-02-04T07:06:03;5.00;99.90
24326;DHT22;12448;45.532;5.290;2024-02-04T07:08:29;4.80;99.90
24326;DHT22;12448;45.532;5.290;2024-02-04T07:10:55;4.80;99.90
24326;DHT22;12448;45.532;5.290;2024-02-04T07:13:20;4.80;99.90
24326;DHT22;12448;45.532;5.290;2024-02-04T07:15:46;5.30;99.90
24326;DHT22;12448;45.532;5.290;2024-02-04T07:18:11;4.80;99.90
24326;DHT22;12448;45.532;5.290;2024-02-04T07:20:40;5.40;99.90
24326;DHT22;12448;45.532;5.290;2024-02-04T07:23:06;4.80;99.90
24326;DHT22;12448;45.532;5.290;2024-02-04T07:25:31;4.70;99.90
24326;DHT22;12448;45.532;5.290;2024-02-04T07:28:00;4.70;99.90
24326;DHT22;12448;45.532;5.290;2024-02-04T07:30:25;5.20;99.90
24326;DHT22;12448;45.532;5.290;2024-02-04T07:32:51;4.80;99.90
24326;DHT22;12448;45.532;5.290;2024-02-04T07:35:17;4.80;99.90
24326;DHT22;12448;45.532;5.290;2024-02-04T07:37:42;4.80;99.90
24326;DHT22;12448;45.532;5.290;2024-02-04T07:40:08;5.10;99.90
24326;DHT22;12448;45.532;5.290;2024-02-04T07:42:34;4.80;99.90
24326;DHT22;12448;45.532;5.290;2024-02-04T07:44:59;4.80;99.90
24326;DHT22;12448;45.532;5.290;2024-02-04T07:47:26;4.90;99.90
24326;DHT22;12448;45.532;5.290;2024-02-04T07:49:52;4.80;99.90
24326;DHT22;12448;45.532;5.290;2024-02-04T07:52:18;4.70;99.90
24326;DHT22;12448;45.532;5.290;2024-02-04T07:54:43;4.90;99.90
24326;DHT22;12448;45.532;5.290;2024-02-04T07:57:12;4.80;99.90
24326;DHT22;12448;45.532;5.290;2024-02-04T07:59:38;4.80;99.90
24326;DHT22;12448;45.532;5.290;2024-02-04T08:02:04;4.80;99.90
24326;DHT22;12448;45.532;5.290;2024-02-04T08:04:30;4.90;99.90
24326;DHT22;12448;45.532;5.290;2024-02-04T08:06:55;4.90;99.90
24326;DHT22;12448;45.532;5.290;2024-02-04T08:09:21;5.00;99.90
24326;DHT22;12448;45.532;5.290;2024-02-04T08:11:47;5.10;99.90
24326;DHT22;12448;45.532;5.290;2024-02-04T08:14:13;5.20;99.90
24326;DHT22;12448;45.532;5.290;2024-02-04T08:16:40;5.00;99.90
24326;DHT22;12448;45.532;5.290;2024-02-04T08:19:06;5.30;99.90
24326;DHT22;12448;45.532;5.290;2024-02-04T08:21:32;5.00;99.90
24326;DHT22;12448;45.532;5.290;2024-02-04T08:23:58;4.90;99.90
24326;DHT22;12448;45.532;5.290;2024-02-04T08:26:24;4.90;99.90
24326;DHT22;12448;45.532;5.290;2024-02-04T08:28:50;4.90;99.90
24326;DHT22;12448;45.532;5.290;2024-02-04T08:31:15;4.80;99.90
24326;DHT22;12448;45.532;5.290;2024-02-04T08:33:41;4.80;99.90
24326;DHT22;12448;45.532;5.290;2024-02-04T08:36:07;4.80;99.90
24326;DHT22;12448;45.532;5.290;2024-02-04T08:38:36;4.90;99.90
24326;DHT22;12448;45.532;5.290;2024-02-04T08:41:02;5.00;99.90
24326;DHT22;12448;45.532;5.290;2024-02-04T08:43:28;5.00;99.90
24326;DHT22;12448;45.532;5.290;2024-02-04T08:45:54;5.00;99.90
24326;DHT22;12448;45.532;5.290;2024-02-04T08:48:19;5.00;99.90
24326;DHT22;12448;45.532;5.290;2024-02-04T08:50:45;4.90;99.90
24326;DHT22;12448;45.532;5.290;2024-02-04T08:53:11;4.90;99.90
24326;DHT22;12448;45.532;5.290;2024-02-04T08:55:36;4.80;99.90
24326;DHT22;12448;45.532;5.290;2024-02-04T08:58:02;4.90;99.90
24326;DHT22;12448;45.532;5.290;2024-02-04T09:00:28;4.70;99.90
24326;DHT22;12448;45.532;5.290;2024-02-04T09:02:53;4.80;99.90
24326;DHT22;12448;45.532;5.290;2024-02-04T09:05:19;4.90;99.90
24326;DHT22;12448;45.532;5.290;2024-02-04T09:07:45;4.90;99.90
24326;DHT22;12448;45.532;5.290;2024-02-04T09:10:11;5.10;99.90
24326;DHT22;12448;45.532;5.290;2024-02-04T09:12:36;5.40;99.90
24326;DHT22;12448;45.532;5.290;2024-02-04T09:15:02;5.00;99.90
24326;DHT22;12448;45.532;5.290;2024-02-04T09:17:30;5.10;99.90
24326;DHT22;12448;45.532;5.290;2024-02-04T09:19:57;5.20;99.90
24326;DHT22;12448;45.532;5.290;2024-02-04T09:22:23;5.60;99.90
24326;DHT22;12448;45.532;5.290;2024-02-04T09:24:48;5.20;99.90
24326;DHT22;12448;45.532;5.290;2024-02-04T09:27:14;5.20;99.90
24326;DHT22;12448;45.532;5.290;2024-02-04T09:29:40;5.10;99.90
24326;DHT22;12448;45.532;5.290;2024-02-04T09:32:05;5.10;99.90
24326;DHT22;12448;45.532;5.290;2024-02-04T09:34:31;5.10;99.90
24326;DHT22;12448;45.532;5.290;2024-02-04T09:36:57;5.20;99.90
24326;DHT22;12448;45.532;5.290;2024-02-04T09:39:22;5.70;99.90
24326;DHT22;12448;45.532;5.290;2024-02-04T09:41:48;5.20;99.90
24326;DHT22;12448;45.532;5.290;2024-02-04T09:44:14;5.30;99.90
24326;DHT22;12448;45.532;5.290;2024-02-04T09:46:40;5.20;99.90
24326;DHT22;12448;45.532;5.290;2024-02-04T09:49:08;5.20;99.90
24326;DHT22;12448;45.532;5.290;2024-02-04T09:51:34;5.20;99.90
24326;DHT22;12448;45.532;5.290;2024-02-04T09:54:03;5.00;99.90
24326;DHT22;12448;45.532;5.290;2024-02-04T09:56:31;5.20;99.90
24326;DHT22;12448;45.532;5.290;2024-02-04T09:58:58;5.80;99.90
24326;DHT22;12448;45.532;5.290;2024-02-04T10:01:25;5.30;99.90
24326;DHT22;12448;45.532;5.290;2024-02-04T10:03:51;5.30;99.90
24326;DHT22;12448;45.532;5.290;2024-02-04T10:06:17;5.80;99.90
24326;DHT22;12448;45.532;5.290;2024-02-04T10:08:43;5.90;99.90
24326;DHT22;12448;45.532;5.290;2024-02-04T10:11:09;5.50;99.90
24326;DHT22;12448;45.532;5.290;2024-02-04T10:13:48;5.30;99.90
24326;DHT22;12448;45.532;5.290;2024-02-04T10:16:15;5.30;99.90
24326;DHT22;12448;45.532;5.290;2024-02-04T10:18:42;5.20;99.90
24326;DHT22;12448;45.532;5.290;2024-02-04T10:21:18;5.40;99.90
24326;DHT22;12448;45.532;5.290;2024-02-04T10:23:47;5.30;99.90
24326;DHT22;12448;45.532;5.290;2024-02-04T10:26:13;5.20;99.90
24326;DHT22;12448;45.532;5.290;2024-02-04T10:28:39;5.20;99.90
24326;DHT22;12448;45.532;5.290;2024-02-04T10:31:09;5.20;99.90
24326;DHT22;12448;45.532;5.290;2024-02-04T10:33:38;5.60;99.90
24326;DHT22;12448;45.532;5.290;2024-02-04T10:36:04;5.70;99.90
24326;DHT22;12448;45.532;5.290;2024-02-04T10:38:31;5.30;99.90
24326;DHT22;12448;45.532;5.290;2024-02-04T10:41:00;5.30;99.90
24326;DHT22;12448;45.532;5.290;2024-02-04T10:43:37;5.30;99.90
24326;DHT22;12448;45.532;5.290;2024-02-04T10:46:32;5.20;99.90
24326;DHT22;12448;45.532;5.290;2024-02-04T10:49:00;5.40;99.90
24326;DHT22;12448;45.532;5.290;2024-02-04T10:51:31;5.00;99.90
24326;DHT22;12448;45.532;5.290;2024-02-04T10:54:00;5.00;99.90
24326;DHT22;12448;45.532;5.290;2024-02-04T10:56:42;5.10;99.90
24326;DHT22;12448;45.532;5.290;2024-02-04T10:59:10;5.10;99.90
24326;DHT22;12448;45.532;5.290;2024-02-04T11:01:40;5.10;99.90
24326;DHT22;12448;45.532;5.290;2024-02-04T11:04:09;5.30;99.90
24326;DHT22;12448;45.532;5.290;2024-02-04T11:06:37;5.70;99.90
24326;DHT22;12448;45.532;5.290;2024-02-04T11:09:04;5.60;99.90
24326;DHT22;12448;45.532;5.290;2024-02-04T11:11:31;5.20;99.90
24326;DHT22;12448;45.532;5.290;2024-02-04T11:14:01;5.40;99.90
24326;DHT22;12448;45.532;5.290;2024-02-04T11:27:50;5.50;99.90
24326;DHT22;12448;45.532;5.290;2024-02-04T11:30:17;5.50;99.90
24326;DHT22;12448;45.532;5.290;2024-02-04T11:32:42;5.70;99.90
24326;DHT22;12448;45.532;5.290;2024-02-04T11:35:08;5.60;99.90
24326;DHT22;12448;45.532;5.290;2024-02-04T11:37:37;5.70;99.90
24326;DHT22;12448;45.532;5.290;2024-02-04T11:40:04;5.30;99.90
24326;DHT22;12448;45.532;5.290;2024-02-04T11:42:33;5.30;99.90
24326;DHT22;12448;45.532;5.290;2024-02-04T11:45:10;5.20;99.90
24326;DHT22;12448;45.532;5.290;2024-02-04T11:47:37;5.30;99.90
24326;DHT22;12448;45.532;5.290;2024-02-04T11:50:04;5.30;99.90
24326;DHT22;12448;45.532;5.290;2024-02-04T11:52:30;5.30;99.90
24326;DHT22;12448;45.532;5.290;2024-02-04T11:54:56;5.50;99.90
24326;DHT22;12448;45.532;5.290;2024-02-04T11:57:23;5.40;99.90
24326;DHT22;12448;45.532;5.290;2024-02-04T11:59:50;5.40;99.90
24326;DHT22;12448;45.532;5.290;2024-02-04T12:02:18;5.30;99.90
24326;DHT22;12448;45.532;5.290;2024-02-04T12:04:45;5.30;99.90
24326;DHT22;12448;45.532;5.290;2024-02-04T12:07:15;5.40;99.90
24326;DHT22;12448;45.532;5.290;2024-02-04T12:09:42;5.30;99.90
24326;DHT22;12448;45.532;5.290;2024-02-04T12:12:08;5.30;99.90
24326;DHT22;12448;45.532;5.290;2024-02-04T12:14:39;5.40;99.90
24326;DHT22;12448;45.532;5.290;2024-02-04T12:17:10;6.00;99.90
24326;DHT22;12448;45.532;5.290;2024-02-04T12:19:38;5.50;99.90
24326;DHT22;12448;45.532;5.290;2024-02-04T12:22:05;5.70;99.90
24326;DHT22;12448;45.532;5.290;2024-02-04T12:24:38;5.50;99.90
24326;DHT22;12448;45.532;5.290;2024-02-04T12:27:07;5.50;99.90
24326;DHT22;12448;45.532;5.290;2024-02-04T12:29:33;6.00;99.90
24326;DHT22;12448;45.532;5.290;2024-02-04T12:32:02;5.50;99.90
24326;DHT22;12448;45.532;5.290;2024-02-04T12:34:28;5.50;99.90
24326;DHT22;12448;45.532;5.290;2024-02-04T12:36:59;5.60;99.90
24326;DHT22;12448;45.532;5.290;2024-02-04T12:39:25;5.60;99.90
24326;DHT22;12448;45.532;5.290;2024-02-04T12:41:51;5.70;99.90
24326;DHT22;12448;45.532;5.290;2024-02-04T12:44:18;5.70;99.90
24326;DHT22;12448;45.532;5.290;2024-02-04T12:46:44;6.40;99.90
24326;DHT22;12448;45.532;5.290;2024-02-04T12:49:16;6.00;99.90
24326;DHT22;12448;45.532;5.290;2024-02-04T12:51:43;5.80;99.90
24326;DHT22;12448;45.532;5.290;2024-02-04T12:54:10;5.90;99.90
24326;DHT22;12448;45.532;5.290;2024-02-04T12:56:45;6.00;99.90
24326;DHT22;12448;45.532;5.290;2024-02-04T12:59:22;6.00;99.90
24326;DHT22;12448;45.532;5.290;2024-02-04T13:01:53;6.10;99.90
24326;DHT22;12448;45.532;5.290;2024-02-04T13:04:19;6.10;99.90
24326;DHT22;12448;45.532;5.290;2024-02-04T13:06:46;6.00;99.90
24326;DHT22;12448;45.532;5.290;2024-02-04T13:09:14;6.60;99.90
24326;DHT22;12448;45.532;5.290;2024-02-04T13:11:41;6.00;99.90
24326;DHT22;12448;45.532;5.290;2024-02-04T13:14:08;6.40;99.90
24326;DHT22;12448;45.532;5.290;2024-02-04T13:16:34;6.00;99.90
24326;DHT22;12448;45.532;5.290;2024-02-04T13:19:02;6.00;99.90
24326;DHT22;12448;45.532;5.290;2024-02-04T13:21:28;6.10;99.90
24326;DHT22;12448;45.532;5.290;2024-02-04T13:23:54;6.10;99.90
24326;DHT22;12448;45.532;5.290;2024-02-04T13:26:19;6.30;99.90
24326;DHT22;12448;45.532;5.290;2024-02-04T13:28:46;5.80;99.90
24326;DHT22;12448;45.532;5.290;2024-02-04T13:31:11;5.80;99.90
24326;DHT22;12448;45.532;5.290;2024-02-04T13:33:43;5.80;99.90
24326;DHT22;12448;45.532;5.290;2024-02-04T13:36:09;5.90;99.90
24326;DHT22;12448;45.532;5.290;2024-02-04T13:38:36;6.30;99.90
24326;DHT22;12448;45.532;5.290;2024-02-04T13:41:02;6.10;99.90
24326;DHT22;12448;45.532;5.290;2024-02-04T13:43:31;6.00;99.90
24326;DHT22;12448;45.532;5.290;2024-02-04T13:45:57;6.10;99.90
24326;DHT22;12448;45.532;5.290;2024-02-04T13:48:22;6.70;99.90
24326;DHT22;12448;45.532;5.290;2024-02-04T13:50:51;6.20;99.90
24326;DHT22;12448;45.532;5.290;2024-02-04T13:53:17;6.70;99.90
24326;DHT22;12448;45.532;5.290;2024-02-04T13:55:42;6.20;99.90
24326;DHT22;12448;45.532;5.290;2024-02-04T13:58:09;6.20;99.90
24326;DHT22;12448;45.532;5.290;2024-02-04T14:00:35;6.40;99.90
24326;DHT22;12448;45.532;5.290;2024-02-04T14:03:01;6.20;99.90
24326;DHT22;12448;45.532;5.290;2024-02-04T14:05:26;6.20;99.90
24326;DHT22;12448;45.532;5.290;2024-02-04T14:07:52;6.20;99.90
24326;DHT22;12448;45.532;5.290;2024-02-04T14:10:17;6.80;99.90
24326;DHT22;12448;45.532;5.290;2024-02-04T14:12:47;6.20;99.90
24326;DHT22;12448;45.532;5.290;2024-02-04T14:15:13;6.20;99.90
24326;DHT22;12448;45.532;5.290;2024-02-04T14:17:39;6.20;99.90
24326;DHT22;12448;45.532;5.290;2024-02-04T14:20:06;6.20;99.90
24326;DHT22;12448;45.532;5.290;2024-02-04T14:22:32;6.20;99.90
24326;DHT22;12448;45.532;5.290;2024-02-04T14:25:01;6.80;99.90
24326;DHT22;12448;45.532;5.290;2024-02-04T14:27:27;6.20;99.90
24326;DHT22;12448;45.532;5.290;2024-02-04T14:29:55;6.10;99.90
24326;DHT22;12448;45.532;5.290;2024-02-04T14:32:20;6.70;99.90
24326;DHT22;12448;45.532;5.290;2024-02-04T14:34:46;6.50;99.90
24326;DHT22;12448;45.532;5.290;2024-02-04T14:37:13;6.60;99.90
24326;DHT22;12448;45.532;5.290;2024-02-04T14:39:39;6.20;99.90
24326;DHT22;12448;45.532;5.290;2024-02-04T14:42:06;6.60;99.90
24326;DHT22;12448;45.532;5.290;2024-02-04T14:44:31;6.30;99.90
24326;DHT22;12448;45.532;5.290;2024-02-04T14:46:57;6.90;99.90
24326;DHT22;12448;45.532;5.290;2024-02-04T14:49:23;6.40;99.90
24326;DHT22;12448;45.532;5.290;2024-02-04T14:51:50;6.70;99.90
24326;DHT22;12448;45.532;5.290;2024-02-04T14:54:15;6.40;99.90
24326;DHT22;12448;45.532;5.290;2024-02-04T14:56:41;6.90;99.90
24326;DHT22;12448;45.532;5.290;2024-02-04T14:59:09;6.50;99.90
24326;DHT22;12448;45.532;5.290;2024-02-04T15:01:36;6.80;99.90
24326;DHT22;12448;45.532;5.290;2024-02-04T15:04:02;7.00;99.90
24326;DHT22;12448;45.532;5.290;2024-02-04T15:06:28;6.30;99.90
24326;DHT22;12448;45.532;5.290;2024-02-04T15:08:55;6.30;99.90
24326;DHT22;12448;45.532;5.290;2024-02-04T15:11:22;6.80;99.90
24326;DHT22;12448;45.532;5.290;2024-02-04T15:13:48;6.30;99.90
24326;DHT22;12448;45.532;5.290;2024-02-04T15:16:14;6.30;99.90
24326;DHT22;12448;45.532;5.290;2024-02-04T15:18:40;6.30;99.90
24326;DHT22;12448;45.532;5.290;2024-02-04T15:21:06;6.20;99.90
24326;DHT22;12448;45.532;5.290;2024-02-04T15:23:32;6.20;99.90
24326;DHT22;12448;45.532;5.290;2024-02-04T15:25:58;6.20;99.90
24326;DHT22;12448;45.532;5.290;2024-02-04T15:28:25;6.10;99.90
24326;DHT22;12448;45.532;5.290;2024-02-04T15:30:51;6.00;99.90
24326;DHT22;12448;45.532;5.290;2024-02-04T15:33:17;6.00;99.90
24326;DHT22;12448;45.532;5.290;2024-02-04T15:35:43;5.90;99.90
24326;DHT22;12448;45.532;5.290;2024-02-04T15:38:10;6.00;99.90
24326;DHT22;12448;45.532;5.290;2024-02-04T15:40:35;6.00;99.90
24326;DHT22;12448;45.532;5.290;2024-02-04T15:43:01;6.50;99.90
24326;DHT22;12448;45.532;5.290;2024-02-04T15:45:27;6.10;99.90
24326;DHT22;12448;45.532;5.290;2024-02-04T15:47:53;6.00;99.90
24326;DHT22;12448;45.532;5.290;2024-02-04T15:50:21;6.00;99.90
24326;DHT22;12448;45.532;5.290;2024-02-04T15:52:48;6.00;99.90
24326;DHT22;12448;45.532;5.290;2024-02-04T15:55:16;5.90;99.90